Time;durP1;ratioP1;P1;durP2;ratioP2;P2;SDS_P1;SDS_P2;PMS_P1;PMS_P2;Temp;Humidity;BMP_temperature;BMP_pressure;BME280_temperature;BME280_humidity;BME280_pressure;Samples;Min_cycle;Max_cycle;Signal;HPM_P1;HPM_P2
2023/08/08 00:01:57;;;;;;;2.70;1.53;;;;;;;14.21;87.80;100772.09;5992163;29;20310;-68
2023/08/08 00:05:20;;;;;;;2.07;1.50;;;;;;;14.40;87.88;100771.03;6013158;29;20226;-68
2023/08/08 00:08:41;;;;;;;2.53;1.37;;;;;;;14.23;87.82;100759.22;6000249;29;20246;-68
2023/08/08 00:12:01;;;;;;;7.30;1.97;;;;;;;14.08;89.32;100768.13;6005349;29;20523;-68
2023/08/08 00:15:22;;;;;;;2.30;1.47;;;;;;;13.98;90.03;100772.78;6007690;29;20246;-69
2023/08/08 00:18:43;;;;;;;2.33;1.93;;;;;;;13.94;91.45;100758.72;5995504;29;20243;-67
2023/08/08 00:22:06;;;;;;;11.27;2.33;;;;;;;13.88;92.81;100753.94;6005700;29;20625;-68
2023/08/08 00:25:26;;;;;;;3.73;1.53;;;;;;;13.75;93.52;100766.25;6003352;29;20254;-67
2023/08/08 00:28:47;;;;;;;2.27;1.60;;;;;;;13.90;94.77;100765.47;6000086;29;20246;-68
2023/08/08 00:32:08;;;;;;;2.60;1.40;;;;;;;14.03;95.31;100759.63;6012561;29;20321;-69
2023/08/08 00:35:29;;;;;;;1.97;1.50;;;;;;;13.99;95.74;100760.97;5991913;29;20230;-68
2023/08/08 00:38:52;;;;;;;2.93;1.93;;;;;;;13.97;96.20;100742.16;6008089;29;20322;-67
2023/08/08 00:42:13;;;;;;;4.77;2.20;;;;;;;13.72;96.76;100743.03;6007028;29;20641;-69
2023/08/08 00:45:35;;;;;;;2.93;2.13;;;;;;;13.69;97.49;100743.31;5990918;29;20274;-67
2023/08/08 00:48:56;;;;;;;2.97;1.53;;;;;;;13.60;97.96;100737.00;5991716;29;20250;-68
2023/08/08 00:52:16;;;;;;;2.07;1.83;;;;;;;13.68;98.67;100736.22;5994069;29;20246;-67
2023/08/08 00:55:39;;;;;;;3.33;2.77;;;;;;;13.67;98.90;100734.50;5982956;29;20242;-68
2023/08/08 00:59:00;;;;;;;2.23;1.33;;;;;;;13.62;99.26;100728.75;5999750;29;20246;-67
2023/08/08 01:02:21;;;;;;;2.03;1.30;;;;;;;13.42;100.00;100727.22;5996970;29;20234;-67
2023/08/08 01:05:48;;;;;;;2.67;1.60;;;;;;;13.62;100.00;100717.91;5997087;29;22444;-68
2023/08/08 01:09:15;;;;;;;7.47;2.13;;;;;;;13.56;100.00;100711.25;5995730;29;20289;-67
2023/08/08 01:12:45;;;;;;;3.10;2.80;;;;;;;13.63;100.00;100723.16;6005403;29;20233;-68
2023/08/08 01:16:06;;;;;;;2.63;1.83;;;;;;;13.71;100.00;100722.34;6008132;29;20576;-68
2023/08/08 01:19:29;;;;;;;4.23;1.87;;;;;;;13.79;100.00;100727.81;5991947;29;20242;-68
2023/08/08 01:22:57;;;;;;;3.23;1.63;;;;;;;13.68;100.00;100713.69;5996808;29;20230;-67
2023/08/08 01:26:20;;;;;;;2.57;1.20;;;;;;;13.73;100.00;100722.16;6013349;29;20239;-67
2023/08/08 01:29:42;;;;;;;2.23;1.17;;;;;;;13.80;100.00;100710.56;5996245;29;20234;-67
2023/08/08 01:33:04;;;;;;;2.87;1.80;;;;;;;13.81;100.00;100704.09;6004114;29;20255;-67
2023/08/08 01:36:29;;;;;;;5.07;1.83;;;;;;;13.90;100.00;100711.28;6010826;29;20234;-67
2023/08/08 01:39:53;;;;;;;2.00;1.80;;;;;;;13.81;100.00;100697.88;6014115;29;20231;-69
2023/08/08 01:43:16;;;;;;;2.90;1.70;;;;;;;13.80;100.00;100702.41;6002514;29;20246;-68
2023/08/08 01:46:38;;;;;;;1.73;1.60;;;;;;;14.03;100.00;100703.56;6007399;29;20490;-67
2023/08/08 01:49:59;;;;;;;1.53;1.30;;;;;;;14.06;100.00;100702.38;6002360;29;20263;-68
2023/08/08 01:53:19;;;;;;;7.23;1.87;;;;;;;13.94;100.00;100704.53;6000983;29;20268;-68
2023/08/08 01:56:40;;;;;;;2.10;1.50;;;;;;;13.93;100.00;100710.13;6015070;29;20281;-67
2023/08/08 02:00:04;;;;;;;1.77;1.23;;;;;;;13.84;100.00;100709.22;6002636;29;20242;-67
2023/08/08 02:03:35;;;;;;;2.87;1.83;;;;;;;13.79;100.00;100700.72;6004327;29;20296;-68
2023/08/08 02:06:58;;;;;;;1.13;1.03;;;;;;;13.80;99.98;100693.44;6008864;29;20242;-68
2023/08/08 02:10:20;;;;;;;1.53;1.30;;;;;;;13.88;99.60;100691.63;5985414;29;20243;-67
2023/08/08 02:13:41;;;;;;;2.83;1.17;;;;;;;13.88;99.09;100698.91;6000337;29;20621;-67
2023/08/08 02:17:03;;;;;;;2.97;1.80;;;;;;;14.00;98.63;100686.75;6000740;29;20247;-67
2023/08/08 02:20:25;;;;;;;1.47;1.17;;;;;;;13.93;97.91;100678.44;5985575;29;20239;-68
2023/08/08 02:23:47;;;;;;;1.40;1.20;;;;;;;13.91;97.14;100685.91;5994487;29;20242;-67
2023/08/08 02:27:08;;;;;;;2.57;1.03;;;;;;;13.87;97.04;100676.34;6006545;29;20235;-67
2023/08/08 02:30:29;;;;;;;1.80;1.30;;;;;;;13.74;96.84;100681.41;5997916;29;20243;-68
2023/08/08 02:33:52;;;;;;;0.90;0.90;;;;;;;13.86;97.02;100666.53;5998415;29;21488;-68
2023/08/08 02:37:12;;;;;;;1.53;0.87;;;;;;;13.88;97.53;100675.38;5999587;29;20265;-68
2023/08/08 02:40:35;;;;;;;5.77;1.47;;;;;;;13.85;98.01;100677.56;5987671;29;20242;-68
2023/08/08 02:43:56;;;;;;;1.87;1.07;;;;;;;13.76;98.27;100668.53;5985236;29;20653;-68
2023/08/08 02:47:17;;;;;;;0.90;0.80;;;;;;;13.94;98.70;100657.59;6004336;29;20317;-68
2023/08/08 02:50:40;;;;;;;1.23;1.13;;;;;;;13.74;99.14;100684.09;5985217;29;20291;-68
2023/08/08 02:54:01;;;;;;;3.50;1.43;;;;;;;13.70;99.24;100677.31;6013233;29;20248;-68
2023/08/08 02:57:24;;;;;;;1.10;1.00;;;;;;;13.70;99.32;100674.59;6000663;29;20724;-68
2023/08/08 03:00:46;;;;;;;1.00;1.00;;;;;;;13.70;99.35;100663.78;5999174;29;20242;-68
2023/08/08 03:04:09;;;;;;;1.37;0.90;;;;;;;13.75;99.47;100672.25;6002896;29;20294;-68
2023/08/08 03:07:32;;;;;;;2.23;1.23;;;;;;;13.71;99.62;100653.75;5995482;29;20254;-68
2023/08/08 03:10:54;;;;;;;1.83;0.83;;;;;;;13.73;99.90;100652.59;6014422;29;20612;-68
2023/08/08 03:14:16;;;;;;;1.17;1.10;;;;;;;13.72;99.70;100669.88;6015281;29;20768;-68
2023/08/08 03:17:43;;;;;;;3.17;1.73;;;;;;;13.67;99.72;100657.78;5998766;29;20245;-69
2023/08/08 03:21:12;;;;;;;0.80;0.80;;;;;;;13.64;100.00;100654.41;5995184;29;20242;-69
2023/08/08 03:24:35;;;;;;;1.93;0.90;;;;;;;13.78;100.00;100647.53;5985144;29;20235;-68
2023/08/08 03:27:56;;;;;;;1.70;1.17;;;;;;;13.67;100.00;100661.38;5981931;29;20676;-68
2023/08/08 03:31:17;;;;;;;1.20;0.87;;;;;;;13.69;100.00;100650.34;6005176;29;20235;-67
2023/08/08 03:34:39;;;;;;;1.63;1.43;;;;;;;13.76;100.00;100668.53;5985924;29;20238;-68
2023/08/08 03:37:59;;;;;;;0.73;0.70;;;;;;;13.63;100.00;100641.03;5998988;29;20226;-67
2023/08/08 03:41:21;;;;;;;2.87;1.73;;;;;;;13.67;100.00;100655.94;5994890;29;20505;-67
2023/08/08 03:44:45;;;;;;;2.07;1.17;;;;;;;13.62;100.00;100628.50;5993901;29;20242;-67
2023/08/08 03:48:06;;;;;;;2.20;1.30;;;;;;;13.60;100.00;100639.50;5994044;29;20334;-67
2023/08/08 03:51:27;;;;;;;1.03;1.03;;;;;;;13.62;100.00;100642.88;6011505;29;20227;-67
2023/08/08 03:54:48;;;;;;;1.90;1.70;;;;;;;13.60;100.00;100646.78;5975945;29;20238;-67
2023/08/08 03:58:10;;;;;;;1.77;1.53;;;;;;;13.58;100.00;100644.22;5998475;29;20234;-68
2023/08/08 04:01:31;;;;;;;1.10;0.90;;;;;;;13.70;100.00;100643.94;6004196;29;20249;-68
2023/08/08 04:04:52;;;;;;;1.43;1.00;;;;;;;13.60;100.00;100646.78;5984495;29;20238;-67
2023/08/08 04:08:14;;;;;;;2.00;1.40;;;;;;;13.58;100.00;100638.78;6001554;29;20236;-67
2023/08/08 04:11:36;;;;;;;1.47;1.10;;;;;;;13.61;100.00;100641.19;5993613;29;20226;-68
2023/08/08 04:14:58;;;;;;;2.83;1.47;;;;;;;13.71;100.00;100638.34;5997987;29;20303;-69
2023/08/08 04:18:19;;;;;;;1.83;1.53;;;;;;;13.70;100.00;100636.69;6001572;29;20238;-69
2023/08/08 04:21:41;;;;;;;2.17;1.43;;;;;;;13.67;100.00;100639.69;6005905;29;20243;-68
2023/08/08 04:25:02;;;;;;;1.83;1.50;;;;;;;13.78;100.00;100635.84;5994266;29;20585;-67
2023/08/08 04:28:22;;;;;;;3.17;1.40;;;;;;;13.67;100.00;100642.41;5992997;29;20641;-68
2023/08/08 04:31:45;;;;;;;2.00;1.13;;;;;;;13.68;100.00;100630.56;6007647;29;20270;-67
2023/08/08 04:35:06;;;;;;;2.17;1.17;;;;;;;13.74;100.00;100631.78;5995374;29;20254;-67
2023/08/08 04:38:27;;;;;;;6.20;1.33;;;;;;;13.80;100.00;100640.09;5996311;29;20230;-67
2023/08/08 04:41:48;;;;;;;3.13;1.00;;;;;;;13.92;100.00;100627.94;6004108;29;20597;-69
2023/08/08 04:45:09;;;;;;;1.80;1.00;;;;;;;13.81;99.33;100640.97;5990232;29;20235;-68
2023/08/08 04:48:32;;;;;;;2.83;1.17;;;;;;;13.86;99.22;100650.28;5994104;29;20261;-68
2023/08/08 04:51:54;;;;;;;2.07;1.23;;;;;;;13.72;98.90;100631.09;6003890;29;20324;-68
2023/08/08 04:55:15;;;;;;;2.47;1.77;;;;;;;13.85;98.75;100645.03;5992903;29;20242;-67
2023/08/08 04:58:35;;;;;;;1.63;0.97;;;;;;;13.92;98.81;100640.66;5996530;29;20239;-67
2023/08/08 05:01:56;;;;;;;1.60;1.50;;;;;;;13.96;97.94;100636.59;5992193;29;20632;-67
2023/08/08 05:05:19;;;;;;;1.43;1.20;;;;;;;14.01;97.80;100626.13;5989057;29;21149;-68
2023/08/08 05:08:40;;;;;;;1.57;1.10;;;;;;;14.16;97.68;100629.91;5992410;29;20279;-66
2023/08/08 05:12:02;;;;;;;1.30;1.00;;;;;;;14.26;96.83;100631.47;5998503;29;20230;-65
2023/08/08 05:15:22;;;;;;;1.40;1.30;;;;;;;14.41;96.29;100645.25;5990357;29;20238;-66
2023/08/08 05:18:44;;;;;;;2.30;2.10;;;;;;;14.61;95.65;100633.06;5992668;29;20326;-66
2023/08/08 05:22:06;;;;;;;2.43;1.57;;;;;;;14.85;95.75;100624.09;6005411;29;20238;-65
2023/08/08 05:25:27;;;;;;;1.40;1.23;;;;;;;14.51;94.76;100632.38;5994580;29;20234;-65
2023/08/08 05:28:48;;;;;;;1.40;1.17;;;;;;;14.72;94.71;100623.75;5985044;29;20242;-66
2023/08/08 05:32:09;;;;;;;1.20;1.10;;;;;;;14.88;94.14;100635.47;6000620;29;20246;-66
2023/08/08 05:35:29;;;;;;;5.37;1.60;;;;;;;14.71;93.20;100631.03;6003477;29;20239;-65
2023/08/08 05:38:52;;;;;;;2.23;1.13;;;;;;;14.85;93.34;100630.34;5995370;29;20242;-66
2023/08/08 05:42:13;;;;;;;1.83;1.20;;;;;;;14.73;92.56;100614.56;5999500;29;20239;-67
2023/08/08 05:45:33;;;;;;;1.13;1.03;;;;;;;15.16;92.58;100641.41;5985518;29;20547;-67
2023/08/08 05:48:54;;;;;;;1.40;1.30;;;;;;;15.08;91.28;100630.53;6002962;29;20318;-67
2023/08/08 05:52:15;;;;;;;1.73;1.00;;;;;;;15.34;90.49;100624.88;6008461;29;20286;-66
2023/08/08 05:55:37;;;;;;;3.53;1.30;;;;;;;15.40;90.40;100627.75;5994761;29;20231;-67
2023/08/08 05:58:58;;;;;;;1.57;1.47;;;;;;;15.10;90.50;100623.91;5997264;29;20238;-66
2023/08/08 06:02:19;;;;;;;6.03;1.70;;;;;;;15.03;91.24;100622.91;6001830;29;20647;-66
2023/08/08 06:05:40;;;;;;;1.47;1.37;;;;;;;15.28;91.58;100626.44;6005221;29;20313;-66
2023/08/08 06:09:01;;;;;;;1.10;1.00;;;;;;;15.13;91.14;100617.28;6002571;29;20234;-67
2023/08/08 06:12:23;;;;;;;2.13;1.33;;;;;;;15.17;91.18;100621.34;6014490;29;21519;-66
2023/08/08 06:15:44;;;;;;;1.20;1.10;;;;;;;15.13;91.97;100628.13;6003578;29;20243;-67
2023/08/08 06:19:05;;;;;;;4.57;1.70;;;;;;;15.17;91.87;100634.91;6005748;29;20234;-68
2023/08/08 06:22:27;;;;;;;3.67;1.57;;;;;;;15.03;92.12;100633.75;6008152;29;20748;-67
2023/08/08 06:25:47;;;;;;;2.80;2.60;;;;;;;14.93;92.49;100629.53;6017229;29;20238;-65
2023/08/08 06:29:13;;;;;;;1.67;1.57;;;;;;;15.35;92.91;100627.44;6012787;29;20262;-66
2023/08/08 06:32:34;;;;;;;0.90;0.90;;;;;;;15.48;91.85;100625.06;6010878;29;20239;-66
2023/08/08 06:35:57;;;;;;;3.20;1.57;;;;;;;15.70;90.65;100621.59;6001684;29;20645;-65
2023/08/08 06:39:21;;;;;;;2.83;1.77;;;;;;;16.03;90.23;100622.31;5992867;29;20254;-66
2023/08/08 06:42:41;;;;;;;1.37;1.10;;;;;;;16.15;88.90;100614.56;6012076;29;20239;-66
2023/08/08 06:46:03;;;;;;;3.07;1.20;;;;;;;15.69;88.96;100628.03;5985386;29;20243;-66
2023/08/08 06:49:24;;;;;;;1.40;1.27;;;;;;;15.55;88.53;100625.22;5994508;29;20219;-67
2023/08/08 06:52:45;;;;;;;2.93;1.50;;;;;;;15.30;89.01;100632.53;6013589;29;20810;-67
2023/08/08 06:56:06;;;;;;;1.73;1.57;;;;;;;15.78;89.11;100618.84;6007764;29;20270;-66
2023/08/08 06:59:27;;;;;;;1.30;1.20;;;;;;;16.08;88.71;100609.03;5995567;29;20321;-66
2023/08/08 07:02:49;;;;;;;2.50;1.07;;;;;;;16.12;86.80;100609.50;5996886;29;20235;-68
2023/08/08 07:06:10;;;;;;;1.43;1.20;;;;;;;16.25;86.37;100607.06;5995835;29;20270;-68
2023/08/08 07:09:32;;;;;;;3.03;1.30;;;;;;;15.87;87.10;100619.66;5988982;29;20568;-67
2023/08/08 07:12:53;;;;;;;1.70;1.03;;;;;;;15.77;86.96;100614.41;6000459;29;20322;-67
2023/08/08 07:16:15;;;;;;;1.20;1.10;;;;;;;16.12;86.82;100617.66;5985972;29;21191;-66
2023/08/08 07:19:37;;;;;;;1.77;1.10;;;;;;;16.38;85.75;100600.00;6005729;29;20518;-68
2023/08/08 07:22:59;;;;;;;0.90;0.90;;;;;;;16.36;83.91;100610.22;6012021;29;20258;-66
2023/08/08 07:26:23;;;;;;;2.07;1.17;;;;;;;16.09;84.55;100607.13;6011818;29;20239;-66
2023/08/08 07:29:44;;;;;;;2.43;1.13;;;;;;;16.36;83.71;100595.75;6001046;29;20262;-66
2023/08/08 07:33:05;;;;;;;0.93;0.70;;;;;;;16.60;82.83;100582.03;5994789;29;20234;-67
2023/08/08 07:36:27;;;;;;;1.00;0.90;;;;;;;16.32;82.37;100599.84;6010982;29;20242;-66
2023/08/08 07:39:51;;;;;;;1.57;1.23;;;;;;;16.66;82.36;100590.31;5989186;29;20334;-67
2023/08/08 07:43:12;;;;;;;1.90;1.20;;;;;;;16.82;82.34;100577.56;6001200;29;20242;-67
2023/08/08 07:46:33;;;;;;;1.80;0.90;;;;;;;17.23;81.86;100578.91;6008326;29;20231;-67
2023/08/08 07:49:54;;;;;;;1.00;0.90;;;;;;;17.40;81.08;100586.69;5999564;29;20637;-66
2023/08/08 07:53:16;;;;;;;1.57;1.07;;;;;;;17.23;81.24;100571.53;6001766;29;20258;-66
2023/08/08 07:56:38;;;;;;;0.83;0.83;;;;;;;17.38;80.95;100575.13;6014825;29;20241;-68
2023/08/08 07:59:58;;;;;;;3.50;1.73;;;;;;;16.79;82.43;100578.81;5994128;29;20238;-67
2023/08/08 08:03:20;;;;;;;2.77;1.57;;;;;;;16.81;82.75;100582.19;5997638;29;20243;-67
2023/08/08 08:06:41;;;;;;;3.17;1.33;;;;;;;16.84;82.89;100579.09;6008012;29;20771;-66
2023/08/08 08:10:03;;;;;;;3.83;2.10;;;;;;;16.90;83.18;100588.41;5999221;29;20625;-67
2023/08/08 08:13:24;;;;;;;2.43;1.23;;;;;;;16.99;82.94;100566.34;5977380;29;20238;-66
2023/08/08 08:16:45;;;;;;;2.10;1.40;;;;;;;17.06;82.63;100571.91;6002835;29;20649;-67
2023/08/08 08:20:10;;;;;;;2.13;1.73;;;;;;;16.76;82.85;100565.53;6004581;29;20238;-67
2023/08/08 08:23:32;;;;;;;1.30;1.20;;;;;;;16.61;85.15;100567.38;6002628;29;22758;-67
2023/08/08 08:26:54;;;;;;;1.80;1.23;;;;;;;16.39;84.83;100579.94;6007609;29;20325;-66
2023/08/08 08:30:15;;;;;;;1.87;1.77;;;;;;;16.48;84.39;100553.50;5994971;29;20234;-67
2023/08/08 08:33:36;;;;;;;1.77;1.50;;;;;;;16.36;83.91;100584.88;6004752;29;20239;-66
2023/08/08 08:36:56;;;;;;;2.53;1.07;;;;;;;16.31;83.78;100609.06;6019961;29;20250;-67
2023/08/08 08:40:17;;;;;;;2.97;1.33;;;;;;;16.62;83.57;100604.47;6001207;29;20677;-68
2023/08/08 08:43:40;;;;;;;1.87;0.73;;;;;;;16.77;82.87;100616.25;5996401;29;20582;-68
2023/08/08 08:47:03;;;;;;;0.90;0.83;;;;;;;16.79;82.75;100597.88;6000858;29;20342;-67
2023/08/08 08:50:27;;;;;;;1.97;0.90;;;;;;;16.63;82.35;100607.00;5992191;29;20242;-68
2023/08/08 08:53:48;;;;;;;2.00;0.83;;;;;;;16.54;82.22;100609.97;5998660;29;20768;-67
2023/08/08 08:57:09;;;;;;;1.17;1.07;;;;;;;17.15;80.78;100604.31;6001835;29;20629;-67
2023/08/08 09:00:31;;;;;;;1.53;1.43;;;;;;;17.44;78.96;100598.06;5996402;29;20247;-67
2023/08/08 09:03:53;;;;;;;1.70;1.00;;;;;;;17.69;77.76;100595.94;6005827;29;20235;-67
2023/08/08 09:07:14;;;;;;;1.87;0.70;;;;;;;17.92;76.16;100602.97;6017880;29;20234;-67
2023/08/08 09:10:35;;;;;;;0.80;0.73;;;;;;;17.34;76.06;100606.50;6004026;29;20234;-67
2023/08/08 09:13:56;;;;;;;3.03;1.43;;;;;;;17.02;76.20;100617.72;6011087;29;20586;-67
2023/08/08 09:17:19;;;;;;;3.43;1.53;;;;;;;16.81;77.38;100612.13;6015705;29;20251;-68
2023/08/08 09:20:39;;;;;;;1.20;1.07;;;;;;;17.15;77.10;100604.31;6001935;29;20708;-68
2023/08/08 09:24:00;;;;;;;1.03;0.73;;;;;;;17.33;77.34;100626.63;6010113;29;20313;-67
2023/08/08 09:27:22;;;;;;;3.20;1.27;;;;;;;16.91;77.12;100620.91;6020782;29;20234;-66
2023/08/08 09:30:43;;;;;;;1.07;0.73;;;;;;;16.75;77.48;100621.03;6009104;29;20250;-68
2023/08/08 09:34:05;;;;;;;1.00;0.90;;;;;;;16.85;77.40;100618.91;6011093;29;20238;-68
2023/08/08 09:37:31;;;;;;;0.90;0.90;;;;;;;17.34;76.35;100608.38;6001351;29;20238;-68
2023/08/08 09:40:52;;;;;;;3.50;0.80;;;;;;;17.28;76.29;100614.59;6012583;29;20230;-67
2023/08/08 09:44:13;;;;;;;1.00;0.67;;;;;;;17.27;76.52;100619.19;6009396;29;20243;-68
2023/08/08 09:47:34;;;;;;;0.77;0.77;;;;;;;17.01;77.44;100629.66;6015123;29;20231;-67
2023/08/08 09:50:59;;;;;;;2.70;1.17;;;;;;;16.86;78.00;100609.69;6009932;29;20243;-67
2023/08/08 09:54:21;;;;;;;2.77;0.97;;;;;;;16.54;79.06;100609.97;6010159;29;20261;-67
2023/08/08 09:57:44;;;;;;;1.53;0.80;;;;;;;16.86;80.08;100606.97;6018255;29;20251;-66
2023/08/08 10:01:06;;;;;;;1.20;0.83;;;;;;;16.81;80.40;100624.91;6015075;29;20248;-66
2023/08/08 10:04:27;;;;;;;0.70;0.70;;;;;;;16.60;79.97;100622.84;6009402;29;20257;-67
2023/08/08 10:07:50;;;;;;;0.60;0.50;;;;;;;16.16;79.66;100611.72;6013083;29;20274;-67
2023/08/08 10:11:14;;;;;;;1.50;0.63;;;;;;;16.01;82.03;100621.63;6015172;29;20234;-68
2023/08/08 10:14:37;;;;;;;1.00;0.80;;;;;;;15.98;84.16;100639.16;6017266;29;20246;-67
2023/08/08 10:17:59;;;;;;;1.43;0.93;;;;;;;15.63;86.14;100636.91;6002408;29;20246;-67
2023/08/08 10:21:21;;;;;;;7.90;1.20;;;;;;;15.97;87.57;100640.19;6016783;29;20236;-68
2023/08/08 10:24:48;;;;;;;2.37;1.07;;;;;;;15.65;89.51;100620.41;6009555;29;20251;-67
2023/08/08 10:28:11;;;;;;;1.03;0.83;;;;;;;15.40;91.17;100629.63;5992664;29;20513;-66
2023/08/08 10:31:36;;;;;;;4.63;1.90;;;;;;;15.08;92.07;100614.25;5994390;29;20242;-66
2023/08/08 10:35:00;;;;;;;1.33;1.20;;;;;;;14.93;94.36;100643.09;5998653;29;20601;-66
2023/08/08 10:38:22;;;;;;;4.83;1.40;;;;;;;15.16;95.17;100628.63;6003155;29;20242;-66
2023/08/08 10:41:48;;;;;;;2.53;1.87;;;;;;;15.38;94.39;100609.94;6009249;29;20239;-67
2023/08/08 10:45:12;;;;;;;4.83;1.27;;;;;;;15.64;93.54;100616.88;5993368;29;20661;-67
2023/08/08 10:48:33;;;;;;;1.40;0.70;;;;;;;16.11;92.39;100611.38;6002847;29;20593;-66
2023/08/08 10:51:54;;;;;;;1.00;0.90;;;;;;;16.26;91.93;100638.66;6014040;29;20250;-66
2023/08/08 10:55:20;;;;;;;1.33;0.70;;;;;;;16.49;90.03;100615.94;5999506;29;20235;-67
2023/08/08 10:58:48;;;;;;;1.13;0.70;;;;;;;16.96;89.41;100623.06;6013590;29;20242;-66
2023/08/08 11:02:10;;;;;;;1.27;0.97;;;;;;;16.61;88.23;100638.13;5997396;29;20805;-66
2023/08/08 11:05:32;;;;;;;2.90;1.10;;;;;;;16.27;89.03;100621.34;6007542;29;20282;-69
2023/08/08 11:08:54;;;;;;;1.17;0.80;;;;;;;16.09;89.27;100609.84;5979991;29;20247;-67
2023/08/08 11:12:15;;;;;;;1.60;1.10;;;;;;;15.94;90.31;100620.63;6018782;29;20326;-67
2023/08/08 11:15:38;;;;;;;1.67;1.30;;;;;;;15.79;89.38;100604.22;5994404;29;20235;-65
2023/08/08 11:18:59;;;;;;;1.33;0.80;;;;;;;15.88;88.50;100602.31;6002715;29;20368;-66
2023/08/08 11:22:22;;;;;;;2.63;0.70;;;;;;;15.84;87.51;100601.84;6006465;29;20234;-66
2023/08/08 11:25:45;;;;;;;0.70;0.70;;;;;;;15.79;85.64;100617.81;6007554;29;20299;-65
2023/08/08 11:29:06;;;;;;;1.03;0.90;;;;;;;15.43;87.19;100623.88;6013578;29;20237;-67
2023/08/08 11:32:29;;;;;;;1.17;1.07;;;;;;;15.01;89.78;100629.50;6007815;29;20266;-67
2023/08/08 11:35:51;;;;;;;0.97;0.87;;;;;;;14.72;92.31;100623.75;5993587;29;20848;-65
2023/08/08 11:39:12;;;;;;;0.80;0.80;;;;;;;15.17;93.29;100602.34;6010775;29;20239;-67
2023/08/08 11:42:33;;;;;;;1.10;0.93;;;;;;;15.79;92.94;100601.50;6011953;29;20775;-67
2023/08/08 11:45:54;;;;;;;0.53;0.50;;;;;;;16.60;90.45;100609.25;5985522;29;20246;-66
2023/08/08 11:49:17;;;;;;;1.60;1.00;;;;;;;16.44;89.07;100612.03;6001222;29;20243;-67
2023/08/08 11:52:46;;;;;;;1.63;0.93;;;;;;;16.29;88.57;100619.28;6002653;29;20327;-67
2023/08/08 11:56:07;;;;;;;2.87;0.97;;;;;;;15.79;89.83;100638.72;6015933;29;20238;-66
2023/08/08 11:59:28;;;;;;;1.13;0.63;;;;;;;15.50;90.30;100631.16;6004510;29;20238;-67
2023/08/08 12:02:53;;;;;;;1.13;1.03;;;;;;;15.34;91.54;100639.31;6015373;29;20234;-67
2023/08/08 12:06:16;;;;;;;1.50;0.80;;;;;;;15.74;93.66;100617.50;6012433;29;20241;-66
2023/08/08 12:09:38;;;;;;;1.13;0.77;;;;;;;16.47;91.60;100619.84;6006790;29;20666;-65
2023/08/08 12:13:00;;;;;;;1.50;0.80;;;;;;;17.07;88.97;100606.28;6001125;29;20226;-66
2023/08/08 12:16:21;;;;;;;3.07;1.30;;;;;;;17.59;88.26;100615.28;6005213;29;20333;-66
2023/08/08 12:19:47;;;;;;;5.00;1.07;;;;;;;17.48;86.59;100610.31;5999739;29;20278;-66
2023/08/08 12:23:09;;;;;;;3.65;1.05;;;;;;;18.06;83.93;100599.38;6001677;29;20266;-70
2023/08/08 12:26:30;;;;;;;3.22;0.80;;;;;;;19.31;79.93;100592.44;6009026;29;20231;-68
2023/08/08 12:29:51;;;;;;;1.80;1.10;;;;;;;18.63;78.80;100590.38;6004157;29;20254;-67
2023/08/08 12:33:12;;;;;;;1.40;0.80;;;;;;;21.33;72.67;100573.94;5997186;29;20231;-68
2023/08/08 12:36:33;;;;;;;2.80;1.23;;;;;;;21.75;68.25;100571.72;6010532;29;20268;-68
2023/08/08 12:39:56;;;;;;;2.72;1.35;;;;;;;21.61;67.94;100567.34;5998867;29;20544;-67
2023/08/08 12:43:18;;;;;;;4.72;1.13;;;;;;;23.78;61.09;100562.91;5994453;29;20235;-65
2023/08/08 12:46:38;;;;;;;0.95;0.60;;;;;;;22.79;59.04;100567.63;6009738;29;20235;-69
2023/08/08 12:49:59;;;;;;;1.40;0.95;;;;;;;24.71;55.04;100572.47;5994474;29;20585;-72
2023/08/08 12:53:20;;;;;;;4.15;1.65;;;;;;;21.35;61.69;100588.28;5991676;29;21023;-72
2023/08/08 12:56:43;;;;;;;2.22;1.08;;;;;;;23.05;59.62;100560.00;6013769;29;20242;-72
2023/08/08 13:00:05;;;;;;;2.33;1.13;;;;;;;21.24;63.61;100580.69;6002535;29;20231;-70
2023/08/08 13:03:26;;;;;;;3.55;1.33;;;;;;;20.40;67.08;100585.00;5986629;29;20238;-71
2023/08/08 13:06:48;;;;;;;1.75;0.80;;;;;;;18.89;72.91;100624.25;6010488;29;20731;-70
2023/08/08 13:10:10;;;;;;;1.38;0.95;;;;;;;17.56;73.28;100635.59;5999746;29;20238;-71
2023/08/08 13:13:32;;;;;;;0.73;0.73;;;;;;;17.38;76.84;100631.50;6005937;29;20238;-71
2023/08/08 13:16:53;;;;;;;3.97;1.73;;;;;;;17.15;80.02;100630.72;6008423;29;20597;-73
2023/08/08 13:20:14;;;;;;;3.10;1.83;;;;;;;16.67;81.43;100599.28;5999597;29;20239;-75
2023/08/08 13:23:35;;;;;;;2.13;1.20;;;;;;;17.74;81.55;100598.94;6002688;29;20329;-77
2023/08/08 13:26:55;;;;;;;2.42;1.15;;;;;;;21.74;71.49;100581.00;6025801;29;20313;-74
2023/08/08 13:30:21;;;;;;;3.97;1.20;;;;;;;23.63;60.31;100576.22;6004757;29;20238;-72
2023/08/08 13:33:42;;;;;;;2.92;1.98;;;;;;;23.78;59.48;100572.00;6008965;29;20234;-71
2023/08/08 13:37:04;;;;;;;5.10;2.25;;;;;;;24.58;56.86;100580.94;6016143;29;20238;-71
2023/08/08 13:40:25;;;;;;;5.22;1.90;;;;;;;25.49;55.60;100597.97;5987276;29;20325;-69
2023/08/08 13:43:46;;;;;;;3.33;1.50;;;;;;;23.87;56.80;100604.72;6004613;29;20234;-72
2023/08/08 13:47:08;;;;;;;4.78;1.38;;;;;;;20.63;65.52;100607.41;6010857;29;20246;-68
2023/08/08 13:50:29;;;;;;;8.98;1.48;;;;;;;19.25;70.85;100596.81;5995568;29;20503;-70
2023/08/08 13:53:50;;;;;;;1.33;0.93;;;;;;;18.69;72.19;100661.44;5996056;29;20329;-74
2023/08/08 13:57:12;;;;;;;4.88;2.03;;;;;;;17.69;77.04;100647.75;6005973;29;20230;-73
2023/08/08 14:00:33;;;;;;;2.55;1.17;;;;;;;17.28;79.05;100653.59;5994508;29;20238;-65
2023/08/08 14:03:55;;;;;;;3.05;1.33;;;;;;;16.93;79.92;100654.25;5998569;29;20341;-66
2023/08/08 14:07:16;;;;;;;1.20;1.10;;;;;;;16.62;82.79;100650.72;6003028;29;20234;-71
2023/08/08 14:10:36;;;;;;;1.40;1.13;;;;;;;16.39;83.81;100652.53;5990553;29;20227;-73
2023/08/08 14:13:57;;;;;;;2.87;1.30;;;;;;;16.38;84.10;100676.19;6006418;29;20238;-69
2023/08/08 14:17:19;;;;;;;1.57;0.93;;;;;;;16.83;83.87;100659.09;6011450;29;21850;-65
2023/08/08 14:20:41;;;;;;;3.60;1.90;;;;;;;16.81;84.80;100663.03;5990886;29;20314;-66
2023/08/08 14:24:03;;;;;;;1.53;1.00;;;;;;;16.68;85.01;100661.75;5995791;29;20527;-66
2023/08/08 14:27:24;;;;;;;3.00;1.43;;;;;;;17.58;83.50;100667.28;6013112;29;20243;-66
2023/08/08 14:30:45;;;;;;;3.80;1.17;;;;;;;17.21;83.20;100662.69;6002929;29;20234;-66
2023/08/08 14:34:06;;;;;;;5.23;1.73;;;;;;;16.88;83.94;100663.97;6007597;29;20250;-67
2023/08/08 14:37:28;;;;;;;2.63;1.58;;;;;;;16.88;83.43;100656.66;6016682;29;20230;-67
2023/08/08 14:40:49;;;;;;;1.95;1.10;;;;;;;17.33;84.11;100658.50;6004239;29;20247;-67
2023/08/08 14:44:10;;;;;;;3.25;1.25;;;;;;;18.19;80.97;100618.63;5999508;29;20224;-68
2023/08/08 14:47:31;;;;;;;1.70;1.42;;;;;;;17.63;80.05;100643.06;6012408;29;20242;-67
2023/08/08 14:50:52;;;;;;;6.72;1.25;;;;;;;17.45;79.21;100666.03;6003027;29;20246;-67
2023/08/08 14:54:14;;;;;;;2.72;1.35;;;;;;;17.73;80.09;100649.06;6005719;29;20242;-67
2023/08/08 14:57:35;;;;;;;3.35;1.00;;;;;;;17.77;79.10;100645.78;6010266;29;20230;-67
2023/08/08 15:00:56;;;;;;;3.80;1.57;;;;;;;17.86;78.13;100654.69;5993895;29;20296;-67
2023/08/08 15:04:17;;;;;;;2.47;1.30;;;;;;;17.64;77.37;100661.94;6005807;29;20247;-66
2023/08/08 15:07:37;;;;;;;2.90;1.40;;;;;;;17.78;76.69;100662.97;6011728;29;20234;-67
2023/08/08 15:11:00;;;;;;;5.25;1.08;;;;;;;17.76;75.23;100684.97;5993425;29;20242;-67
2023/08/08 15:14:21;;;;;;;1.37;0.90;;;;;;;17.62;74.78;100699.47;5994320;29;20246;-68
2023/08/08 15:17:42;;;;;;;2.73;0.73;;;;;;;17.40;74.18;100689.41;6001275;29;20326;-65
2023/08/08 15:21:03;;;;;;;2.43;2.23;;;;;;;17.64;73.92;100699.25;6009026;29;20234;-69
2023/08/08 15:24:24;;;;;;;4.30;2.08;;;;;;;17.21;74.16;100722.63;5982598;29;20324;-67
2023/08/08 15:27:46;;;;;;;7.03;6.47;;;;;;;17.93;75.10;100721.09;6012390;29;20234;-69
2023/08/08 15:31:07;;;;;;;11.73;10.90;;;;;;;17.64;74.24;100730.09;6013387;29;20227;-69
2023/08/08 15:34:27;;;;;;;24.40;22.10;;;;;;;17.78;74.96;100728.41;5989424;29;20231;-66
2023/08/08 15:37:48;;;;;;;36.03;32.63;;;;;;;17.35;75.44;100714.50;6007956;29;20926;-67